Search for airport 
image banner adimage banner adimage banner ad
image banner ad

KMXO - Monticello Rgnl

Located in Monticello, United States

ICAO - MXO, IATA -

Data provided by Airmate  

General information

Coordinates: N42°13'13" W91°9'48"
Elevation is 833 feet MSL.
Magnetic variation is 01° East
View others Airports in Iowa

Operational data

Special qualification required
Current time UTC:
Current local time:
Weather
METAR: KMXO 181735Z AUTO VRB03KT 10SM CLR 30/14 A2982 RMK AO2
View NOTAMs / SUP AIP / TFR affecting this airport [VIEW]
Communications frequencies: [VIEW]

Runways:

RWY identifierQFULength (ft)Width (ft)SurfaceLDA (ft)
0990°230090GRASS
27270°230090GRASS
15154°440075CONC
33334°440075CONC

Airport contact information

Address: Monticello United States

Other aviation service providers

Flight schools

Monticello Aviation, Inc.

Monticello Aviation, Inc.

Satellite view of KMXO